sensor_id;sensor_type;location;lat;lon;timestamp;temperature;humidity
47114;DHT22;32867;51.556;6.832;2023-01-24T00:02:51;5.70;99.90
47114;DHT22;32867;51.556;6.832;2023-01-24T00:07:51;5.60;99.90
47114;DHT22;32867;51.556;6.832;2023-01-24T00:12:52;5.40;99.90
47114;DHT22;32867;51.556;6.832;2023-01-24T00:17:53;5.50;99.90
47114;DHT22;32867;51.556;6.832;2023-01-24T00:22:53;5.50;99.90
47114;DHT22;32867;51.556;6.832;2023-01-24T00:27:54;5.60;99.90
47114;DHT22;32867;51.556;6.832;2023-01-24T00:32:54;5.50;99.90
47114;DHT22;32867;51.556;6.832;2023-01-24T00:37:55;5.60;99.90
47114;DHT22;32867;51.556;6.832;2023-01-24T00:42:57;5.50;99.90
47114;DHT22;32867;51.556;6.832;2023-01-24T00:47:59;5.40;99.90
47114;DHT22;32867;51.556;6.832;2023-01-24T00:53:01;5.30;99.90
47114;DHT22;32867;51.556;6.832;2023-01-24T00:58:02;5.30;99.90
47114;DHT22;32867;51.556;6.832;2023-01-24T01:03:03;5.20;99.90
47114;DHT22;32867;51.556;6.832;2023-01-24T01:08:03;5.30;99.90
47114;DHT22;32867;51.556;6.832;2023-01-24T01:13:05;5.20;99.90
47114;DHT22;32867;51.556;6.832;2023-01-24T01:18:05;5.30;99.90
47114;DHT22;32867;51.556;6.832;2023-01-24T01:23:06;5.20;99.90
47114;DHT22;32867;51.556;6.832;2023-01-24T01:28:07;5.00;99.90
47114;DHT22;32867;51.556;6.832;2023-01-24T01:33:08;4.80;99.90
47114;DHT22;32867;51.556;6.832;2023-01-24T01:38:08;5.00;99.90
47114;DHT22;32867;51.556;6.832;2023-01-24T01:43:14;4.90;99.90
47114;DHT22;32867;51.556;6.832;2023-01-24T01:48:17;4.80;99.90
47114;DHT22;32867;51.556;6.832;2023-01-24T01:53:20;4.80;99.90
47114;DHT22;32867;51.556;6.832;2023-01-24T01:58:21;4.70;99.90
47114;DHT22;32867;51.556;6.832;2023-01-24T02:03:39;4.90;99.90
47114;DHT22;32867;51.556;6.832;2023-01-24T02:08:42;4.90;99.90
47114;DHT22;32867;51.556;6.832;2023-01-24T02:13:44;4.90;99.90
47114;DHT22;32867;51.556;6.832;2023-01-24T02:18:46;5.00;99.90
47114;DHT22;32867;51.556;6.832;2023-01-24T02:29:06;5.00;99.90
47114;DHT22;32867;51.556;6.832;2023-01-24T02:34:07;4.90;99.90
47114;DHT22;32867;51.556;6.832;2023-01-24T02:39:11;5.10;99.90
47114;DHT22;32867;51.556;6.832;2023-01-24T02:44:24;5.10;99.90
47114;DHT22;32867;51.556;6.832;2023-01-24T02:49:26;4.90;99.90
47114;DHT22;32867;51.556;6.832;2023-01-24T02:54:27;4.80;99.90
47114;DHT22;32867;51.556;6.832;2023-01-24T02:59:27;4.80;99.90
47114;DHT22;32867;51.556;6.832;2023-01-24T03:04:29;5.00;99.90
47114;DHT22;32867;51.556;6.832;2023-01-24T03:09:29;4.80;99.90
47114;DHT22;32867;51.556;6.832;2023-01-24T03:14:38;4.90;99.90
47114;DHT22;32867;51.556;6.832;2023-01-24T03:19:58;4.70;99.90
47114;DHT22;32867;51.556;6.832;2023-01-24T03:25:17;4.80;99.90
47114;DHT22;32867;51.556;6.832;2023-01-24T03:30:37;4.60;99.90
47114;DHT22;32867;51.556;6.832;2023-01-24T03:35:56;4.90;99.90
47114;DHT22;32867;51.556;6.832;2023-01-24T03:41:02;4.90;99.90
47114;DHT22;32867;51.556;6.832;2023-01-24T03:46:03;4.80;99.90
47114;DHT22;32867;51.556;6.832;2023-01-24T03:51:15;4.90;99.90
47114;DHT22;32867;51.556;6.832;2023-01-24T03:56:35;4.90;99.90
47114;DHT22;32867;51.556;6.832;2023-01-24T04:01:35;4.80;99.90
47114;DHT22;32867;51.556;6.832;2023-01-24T04:06:49;4.80;99.90
47114;DHT22;32867;51.556;6.832;2023-01-24T04:11:50;4.80;99.90
47114;DHT22;32867;51.556;6.832;2023-01-24T04:16:56;5.00;99.90
47114;DHT22;32867;51.556;6.832;2023-01-24T04:22:03;5.00;99.90
47114;DHT22;32867;51.556;6.832;2023-01-24T04:27:06;5.00;99.90
47114;DHT22;32867;51.556;6.832;2023-01-24T04:32:33;4.90;99.90
47114;DHT22;32867;51.556;6.832;2023-01-24T04:37:39;4.70;99.90
47114;DHT22;32867;51.556;6.832;2023-01-24T04:42:40;4.60;99.90
47114;DHT22;32867;51.556;6.832;2023-01-24T04:47:41;4.60;99.90
47114;DHT22;32867;51.556;6.832;2023-01-24T04:52:42;4.50;99.90
47114;DHT22;32867;51.556;6.832;2023-01-24T04:57:45;4.70;99.90
47114;DHT22;32867;51.556;6.832;2023-01-24T05:02:46;4.80;99.90
47114;DHT22;32867;51.556;6.832;2023-01-24T05:07:47;5.00;99.90
47114;DHT22;32867;51.556;6.832;2023-01-24T05:12:51;4.90;99.90
47114;DHT22;32867;51.556;6.832;2023-01-24T05:17:55;4.60;99.90
47114;DHT22;32867;51.556;6.832;2023-01-24T05:22:58;4.80;99.90
47114;DHT22;32867;51.556;6.832;2023-01-24T05:28:01;4.80;99.90
47114;DHT22;32867;51.556;6.832;2023-01-24T05:33:03;4.80;99.90
47114;DHT22;32867;51.556;6.832;2023-01-24T05:38:06;5.10;99.90
47114;DHT22;32867;51.556;6.832;2023-01-24T05:43:08;5.10;99.90
47114;DHT22;32867;51.556;6.832;2023-01-24T05:48:08;5.00;99.90
47114;DHT22;32867;51.556;6.832;2023-01-24T05:53:10;5.00;99.90
47114;DHT22;32867;51.556;6.832;2023-01-24T05:58:11;5.00;99.90
47114;DHT22;32867;51.556;6.832;2023-01-24T06:03:37;4.80;99.90
47114;DHT22;32867;51.556;6.832;2023-01-24T06:08:38;5.00;99.90
47114;DHT22;32867;51.556;6.832;2023-01-24T06:13:39;5.20;99.90
47114;DHT22;32867;51.556;6.832;2023-01-24T06:18:40;5.10;99.90
47114;DHT22;32867;51.556;6.832;2023-01-24T06:23:42;5.10;99.90
47114;DHT22;32867;51.556;6.832;2023-01-24T06:28:43;5.10;99.90
47114;DHT22;32867;51.556;6.832;2023-01-24T06:38:47;5.00;99.90
47114;DHT22;32867;51.556;6.832;2023-01-24T06:43:48;5.10;99.90
47114;DHT22;32867;51.556;6.832;2023-01-24T06:48:48;5.20;99.90
47114;DHT22;32867;51.556;6.832;2023-01-24T06:53:49;5.20;99.90
47114;DHT22;32867;51.556;6.832;2023-01-24T06:58:50;5.10;99.90
47114;DHT22;32867;51.556;6.832;2023-01-24T07:03:50;5.10;99.90
47114;DHT22;32867;51.556;6.832;2023-01-24T07:08:51;5.20;99.90
47114;DHT22;32867;51.556;6.832;2023-01-24T07:13:51;5.00;99.90
47114;DHT22;32867;51.556;6.832;2023-01-24T07:18:52;4.90;99.90
47114;DHT22;32867;51.556;6.832;2023-01-24T07:23:55;4.90;99.90
47114;DHT22;32867;51.556;6.832;2023-01-24T07:28:57;4.80;99.90
47114;DHT22;32867;51.556;6.832;2023-01-24T07:33:57;4.70;99.90
47114;DHT22;32867;51.556;6.832;2023-01-24T07:38:58;4.50;99.90
47114;DHT22;32867;51.556;6.832;2023-01-24T07:43:58;4.60;99.90
47114;DHT22;32867;51.556;6.832;2023-01-24T07:48:59;4.70;99.90
47114;DHT22;32867;51.556;6.832;2023-01-24T07:54:00;4.80;99.90
47114;DHT22;32867;51.556;6.832;2023-01-24T07:59:01;4.90;99.90
47114;DHT22;32867;51.556;6.832;2023-01-24T08:04:01;4.90;99.90
47114;DHT22;32867;51.556;6.832;2023-01-24T08:09:02;4.70;99.90
47114;DHT22;32867;51.556;6.832;2023-01-24T08:14:03;4.80;99.90
47114;DHT22;32867;51.556;6.832;2023-01-24T08:19:04;4.90;99.90
47114;DHT22;32867;51.556;6.832;2023-01-24T08:24:05;5.10;99.90
47114;DHT22;32867;51.556;6.832;2023-01-24T08:29:06;5.10;99.90
47114;DHT22;32867;51.556;6.832;2023-01-24T08:34:06;5.10;99.90
47114;DHT22;32867;51.556;6.832;2023-01-24T08:39:07;5.10;99.90
47114;DHT22;32867;51.556;6.832;2023-01-24T08:44:08;5.20;99.90
47114;DHT22;32867;51.556;6.832;2023-01-24T08:49:11;5.30;99.90
47114;DHT22;32867;51.556;6.832;2023-01-24T08:54:12;5.30;99.90
47114;DHT22;32867;51.556;6.832;2023-01-24T08:59:13;5.20;99.90
47114;DHT22;32867;51.556;6.832;2023-01-24T09:04:14;5.20;99.90
47114;DHT22;32867;51.556;6.832;2023-01-24T09:09:15;5.30;99.90
47114;DHT22;32867;51.556;6.832;2023-01-24T09:14:15;5.20;99.90
47114;DHT22;32867;51.556;6.832;2023-01-24T09:19:16;5.10;99.90
47114;DHT22;32867;51.556;6.832;2023-01-24T09:24:17;5.30;99.90
47114;DHT22;32867;51.556;6.832;2023-01-24T09:29:18;5.20;99.90
47114;DHT22;32867;51.556;6.832;2023-01-24T09:34:19;5.40;99.90
47114;DHT22;32867;51.556;6.832;2023-01-24T09:39:20;5.40;99.90
47114;DHT22;32867;51.556;6.832;2023-01-24T09:49:58;5.40;99.90
47114;DHT22;32867;51.556;6.832;2023-01-24T10:00:26;5.40;99.90
47114;DHT22;32867;51.556;6.832;2023-01-24T10:05:49;5.60;99.90
47114;DHT22;32867;51.556;6.832;2023-01-24T10:16:18;5.70;99.90
47114;DHT22;32867;51.556;6.832;2023-01-24T10:26:41;5.30;99.90
47114;DHT22;32867;51.556;6.832;2023-01-24T10:32:04;5.40;99.90
47114;DHT22;32867;51.556;6.832;2023-01-24T10:37:26;5.60;99.90
47114;DHT22;32867;51.556;6.832;2023-01-24T10:42:30;5.90;99.90
47114;DHT22;32867;51.556;6.832;2023-01-24T10:53:22;5.90;98.40
47114;DHT22;32867;51.556;6.832;2023-01-24T10:58:35;6.00;99.70
47114;DHT22;32867;51.556;6.832;2023-01-24T11:03:39;6.10;99.20
47114;DHT22;32867;51.556;6.832;2023-01-24T11:08:40;6.00;98.20
47114;DHT22;32867;51.556;6.832;2023-01-24T11:13:44;5.90;98.80
47114;DHT22;32867;51.556;6.832;2023-01-24T11:29:15;5.80;99.60
47114;DHT22;32867;51.556;6.832;2023-01-24T11:34:39;6.10;99.10
47114;DHT22;32867;51.556;6.832;2023-01-24T11:45:00;6.50;98.90
47114;DHT22;32867;51.556;6.832;2023-01-24T11:50:26;6.40;97.70
47114;DHT22;32867;51.556;6.832;2023-01-24T12:16:29;5.80;98.00
47114;DHT22;32867;51.556;6.832;2023-01-24T12:21:36;5.80;98.00
47114;DHT22;32867;51.556;6.832;2023-01-24T12:26:41;5.50;98.90
47114;DHT22;32867;51.556;6.832;2023-01-24T12:37:10;5.70;99.90
47114;DHT22;32867;51.556;6.832;2023-01-24T12:42:18;6.10;98.60
47114;DHT22;32867;51.556;6.832;2023-01-24T12:47:36;6.30;98.50
47114;DHT22;32867;51.556;6.832;2023-01-24T12:58:13;6.10;98.50
47114;DHT22;32867;51.556;6.832;2023-01-24T13:14:36;6.50;97.30
47114;DHT22;32867;51.556;6.832;2023-01-24T13:36:12;6.60;97.10
47114;DHT22;32867;51.556;6.832;2023-01-24T13:51:48;6.70;96.80
47114;DHT22;32867;51.556;6.832;2023-01-24T14:02:30;6.60;95.50
47114;DHT22;32867;51.556;6.832;2023-01-24T14:07:39;6.50;96.60
47114;DHT22;32867;51.556;6.832;2023-01-24T14:12:52;6.50;96.40
47114;DHT22;32867;51.556;6.832;2023-01-24T14:17:53;6.10;96.30
47114;DHT22;32867;51.556;6.832;2023-01-24T14:22:57;6.10;97.10
47114;DHT22;32867;51.556;6.832;2023-01-24T14:28:11;6.10;97.20
47114;DHT22;32867;51.556;6.832;2023-01-24T14:33:22;6.20;97.40
47114;DHT22;32867;51.556;6.832;2023-01-24T14:38:23;6.30;96.90
47114;DHT22;32867;51.556;6.832;2023-01-24T14:43:44;6.30;96.50
47114;DHT22;32867;51.556;6.832;2023-01-24T14:48:45;6.40;96.90
47114;DHT22;32867;51.556;6.832;2023-01-24T14:53:47;6.40;96.60
47114;DHT22;32867;51.556;6.832;2023-01-24T14:58:49;6.20;96.00
47114;DHT22;32867;51.556;6.832;2023-01-24T15:03:50;6.00;96.90
47114;DHT22;32867;51.556;6.832;2023-01-24T15:08:59;6.20;97.30
47114;DHT22;32867;51.556;6.832;2023-01-24T15:19:13;6.20;96.80
47114;DHT22;32867;51.556;6.832;2023-01-24T15:34:44;5.90;97.30
47114;DHT22;32867;51.556;6.832;2023-01-24T15:39:44;5.90;97.10
47114;DHT22;32867;51.556;6.832;2023-01-24T15:44:46;5.80;96.90
47114;DHT22;32867;51.556;6.832;2023-01-24T15:50:00;5.70;97.80
47114;DHT22;32867;51.556;6.832;2023-01-24T15:55:24;5.90;97.60
47114;DHT22;32867;51.556;6.832;2023-01-24T16:00:29;5.70;97.30
47114;DHT22;32867;51.556;6.832;2023-01-24T16:05:29;5.60;98.10
47114;DHT22;32867;51.556;6.832;2023-01-24T16:10:30;5.50;98.10
47114;DHT22;32867;51.556;6.832;2023-01-24T16:15:32;5.60;97.90
47114;DHT22;32867;51.556;6.832;2023-01-24T16:20:32;5.60;97.70
47114;DHT22;32867;51.556;6.832;2023-01-24T16:25:34;5.40;98.20
47114;DHT22;32867;51.556;6.832;2023-01-24T16:30:36;5.40;98.30
47114;DHT22;32867;51.556;6.832;2023-01-24T16:35:36;5.30;98.40
47114;DHT22;32867;51.556;6.832;2023-01-24T16:40:37;5.30;98.40
47114;DHT22;32867;51.556;6.832;2023-01-24T16:45:38;5.20;98.30
47114;DHT22;32867;51.556;6.832;2023-01-24T16:50:40;5.20;98.10
47114;DHT22;32867;51.556;6.832;2023-01-24T16:55:42;5.30;98.60
47114;DHT22;32867;51.556;6.832;2023-01-24T17:00:42;5.40;97.90
47114;DHT22;32867;51.556;6.832;2023-01-24T17:05:43;5.40;98.40
47114;DHT22;32867;51.556;6.832;2023-01-24T17:10:43;5.50;98.20
47114;DHT22;32867;51.556;6.832;2023-01-24T17:15:44;5.60;98.10
47114;DHT22;32867;51.556;6.832;2023-01-24T17:20:45;5.60;97.90
47114;DHT22;32867;51.556;6.832;2023-01-24T17:25:45;5.50;97.80
47114;DHT22;32867;51.556;6.832;2023-01-24T17:30:46;5.50;98.20
47114;DHT22;32867;51.556;6.832;2023-01-24T17:35:46;5.50;98.10
47114;DHT22;32867;51.556;6.832;2023-01-24T17:40:50;5.60;98.10
47114;DHT22;32867;51.556;6.832;2023-01-24T17:45:59;5.50;98.10
47114;DHT22;32867;51.556;6.832;2023-01-24T17:51:11;5.40;97.80
47114;DHT22;32867;51.556;6.832;2023-01-24T17:56:17;5.10;98.30
47114;DHT22;32867;51.556;6.832;2023-01-24T18:01:18;4.60;98.70
47114;DHT22;32867;51.556;6.832;2023-01-24T18:06:19;4.40;99.90
47114;DHT22;32867;51.556;6.832;2023-01-24T18:11:20;4.30;99.90
47114;DHT22;32867;51.556;6.832;2023-01-24T18:16:20;4.20;99.90
47114;DHT22;32867;51.556;6.832;2023-01-24T18:21:25;4.50;99.90
47114;DHT22;32867;51.556;6.832;2023-01-24T18:26:27;4.40;99.90
47114;DHT22;32867;51.556;6.832;2023-01-24T18:31:28;4.40;99.90
47114;DHT22;32867;51.556;6.832;2023-01-24T18:36:30;4.40;99.90
47114;DHT22;32867;51.556;6.832;2023-01-24T18:41:31;4.70;99.90
47114;DHT22;32867;51.556;6.832;2023-01-24T18:46:33;4.90;99.90
47114;DHT22;32867;51.556;6.832;2023-01-24T18:51:34;5.00;99.40
47114;DHT22;32867;51.556;6.832;2023-01-24T18:56:35;5.10;99.20
47114;DHT22;32867;51.556;6.832;2023-01-24T19:01:36;5.10;99.30
47114;DHT22;32867;51.556;6.832;2023-01-24T19:06:37;5.00;99.00
47114;DHT22;32867;51.556;6.832;2023-01-24T19:11:39;5.10;99.10
47114;DHT22;32867;51.556;6.832;2023-01-24T19:16:41;5.10;98.80
47114;DHT22;32867;51.556;6.832;2023-01-24T19:21:42;5.10;99.00
47114;DHT22;32867;51.556;6.832;2023-01-24T19:26:43;5.10;98.60
47114;DHT22;32867;51.556;6.832;2023-01-24T19:31:44;5.00;98.60
47114;DHT22;32867;51.556;6.832;2023-01-24T19:36:45;4.90;98.80
47114;DHT22;32867;51.556;6.832;2023-01-24T19:41:45;4.90;99.40
47114;DHT22;32867;51.556;6.832;2023-01-24T19:46:47;4.50;99.10
47114;DHT22;32867;51.556;6.832;2023-01-24T19:51:48;4.10;99.90
47114;DHT22;32867;51.556;6.832;2023-01-24T19:56:49;4.50;99.90
47114;DHT22;32867;51.556;6.832;2023-01-24T20:01:54;4.50;99.90
47114;DHT22;32867;51.556;6.832;2023-01-24T20:06:55;4.50;99.90
47114;DHT22;32867;51.556;6.832;2023-01-24T20:11:56;4.50;99.80
47114;DHT22;32867;51.556;6.832;2023-01-24T20:16:56;4.60;99.90
47114;DHT22;32867;51.556;6.832;2023-01-24T20:21:58;4.60;99.40
47114;DHT22;32867;51.556;6.832;2023-01-24T20:26:59;4.30;99.90
47114;DHT22;32867;51.556;6.832;2023-01-24T20:31:59;4.20;99.90
47114;DHT22;32867;51.556;6.832;2023-01-24T20:37:00;4.10;99.90
47114;DHT22;32867;51.556;6.832;2023-01-24T20:42:01;4.20;99.90
47114;DHT22;32867;51.556;6.832;2023-01-24T20:47:02;4.20;99.90
47114;DHT22;32867;51.556;6.832;2023-01-24T20:52:03;4.20;99.90
47114;DHT22;32867;51.556;6.832;2023-01-24T20:57:03;4.20;99.90
47114;DHT22;32867;51.556;6.832;2023-01-24T21:02:04;4.00;99.90
47114;DHT22;32867;51.556;6.832;2023-01-24T21:07:07;4.20;99.90
47114;DHT22;32867;51.556;6.832;2023-01-24T21:12:07;4.40;99.90
47114;DHT22;32867;51.556;6.832;2023-01-24T21:17:09;4.30;99.90
47114;DHT22;32867;51.556;6.832;2023-01-24T21:22:09;4.50;99.90
47114;DHT22;32867;51.556;6.832;2023-01-24T21:27:10;4.50;99.70
47114;DHT22;32867;51.556;6.832;2023-01-24T21:32:10;4.60;99.50
47114;DHT22;32867;51.556;6.832;2023-01-24T21:37:11;4.60;99.60
47114;DHT22;32867;51.556;6.832;2023-01-24T21:42:12;4.70;99.10
47114;DHT22;32867;51.556;6.832;2023-01-24T21:47:12;4.60;99.10
47114;DHT22;32867;51.556;6.832;2023-01-24T21:52:13;4.60;99.40
47114;DHT22;32867;51.556;6.832;2023-01-24T21:57:14;4.60;99.10
47114;DHT22;32867;51.556;6.832;2023-01-24T22:02:33;4.50;99.30
47114;DHT22;32867;51.556;6.832;2023-01-24T22:07:34;4.20;99.20
47114;DHT22;32867;51.556;6.832;2023-01-24T22:12:35;3.80;99.90
47114;DHT22;32867;51.556;6.832;2023-01-24T22:17:37;4.10;99.90
47114;DHT22;32867;51.556;6.832;2023-01-24T22:23:18;4.00;99.80
47114;DHT22;32867;51.556;6.832;2023-01-24T22:28:21;3.90;99.90
47114;DHT22;32867;51.556;6.832;2023-01-24T22:33:22;3.80;99.90
47114;DHT22;32867;51.556;6.832;2023-01-24T22:38:23;3.80;99.90
47114;DHT22;32867;51.556;6.832;2023-01-24T22:43:26;4.10;99.90
47114;DHT22;32867;51.556;6.832;2023-01-24T22:48:27;4.20;99.90
47114;DHT22;32867;51.556;6.832;2023-01-24T22:53:27;4.30;99.90
47114;DHT22;32867;51.556;6.832;2023-01-24T22:58:28;4.40;99.60
47114;DHT22;32867;51.556;6.832;2023-01-24T23:03:32;4.10;99.90
47114;DHT22;32867;51.556;6.832;2023-01-24T23:08:33;4.20;99.90
47114;DHT22;32867;51.556;6.832;2023-01-24T23:13:33;4.30;99.90
47114;DHT22;32867;51.556;6.832;2023-01-24T23:18:53;4.40;99.90
47114;DHT22;32867;51.556;6.832;2023-01-24T23:24:12;4.40;99.50
47114;DHT22;32867;51.556;6.832;2023-01-24T23:34:49;4.40;99.70
47114;DHT22;32867;51.556;6.832;2023-01-24T23:39:50;4.40;99.70
47114;DHT22;32867;51.556;6.832;2023-01-24T23:44:52;4.20;99.20
47114;DHT22;32867;51.556;6.832;2023-01-24T23:49:52;3.80;99.90
47114;DHT22;32867;51.556;6.832;2023-01-24T23:54:53;3.90;99.90
47114;DHT22;32867;51.556;6.832;2023-01-24T23:59:54;3.90;99.90
